Terminal Aerodrome Forecast
Issued by NWS

Home | Current Version | Previous Version | Text Only | Print | Product List | Glossary On
Versions: 1 2 3 4 5 6 7 8 9 10 11 12 13 14 15 16 17 18
000
FTUS43 KAPX 250828 AAA
TAFTVC
TAF AMD
KTVC 250828Z 2508/2606 14005KT 5SM -RA SCT008 OVC050 WS020/19036KT
      TEMPO 2508/2510 2SM RA BR BKN008
     FM251000 16005KT P6SM BKN035 OVC250 WS020/20035KT
     FM251500 20009G18KT P6SM BKN040
     FM251900 21010G18KT P6SM VCSH BKN040
     FM260100 22007KT P6SM FEW070 SCT250=

USA.gov is the U.S. government's official web portal to all federal, state and local government web resources and services.